createdAt,value
2023-04-23T00:03:37.456Z,99570.84
2023-04-23T00:08:40.949Z,99584.84
2023-04-23T00:13:42.629Z,99578.88
2023-04-23T00:18:43.952Z,99583.81
2023-04-23T00:23:45.313Z,99589.69
2023-04-23T00:28:46.697Z,99576.00
2023-04-23T00:33:48.251Z,99578.19
2023-04-23T00:38:49.622Z,99578.31
2023-04-23T00:43:53.096Z,99585.63
2023-04-23T00:48:54.891Z,99582.69
2023-04-23T00:53:56.312Z,99585.09
2023-04-23T00:58:57.732Z,99578.63
2023-04-23T01:03:59.855Z,99572.81
2023-04-23T01:09:01.539Z,99576.19
2023-04-23T01:14:03.263Z,99576.66
2023-04-23T01:19:07.664Z,99577.75
2023-04-23T01:24:10.089Z,99574.22
2023-04-23T01:29:11.888Z,99582.66
2023-04-23T01:34:13.882Z,99587.25
2023-04-23T01:39:15.675Z,99588.34
2023-04-23T01:44:17.059Z,99603.63
2023-04-23T01:49:18.534Z,99599.91
2023-04-23T01:54:19.934Z,99605.13
2023-04-23T01:59:22.745Z,99611.59
2023-04-23T02:04:24.420Z,99603.75
2023-04-23T02:09:25.962Z,99601.75
2023-04-23T02:14:27.939Z,99609.69
2023-04-23T02:19:31.641Z,99617.94
2023-04-23T02:24:33.887Z,99624.81
2023-04-23T02:29:36.731Z,99628.28
2023-04-23T02:34:38.340Z,99618.91
2023-04-23T02:39:39.902Z,99617.94
2023-04-23T02:44:41.531Z,99611.47
2023-04-23T02:49:43.078Z,99617.69
2023-04-23T02:54:44.409Z,99617.28
2023-04-23T02:59:46.240Z,99619.75
2023-04-23T03:04:47.598Z,99618.53
2023-04-23T03:09:48.978Z,99623.09
2023-04-23T03:14:50.349Z,99628.97
2023-04-23T03:19:51.943Z,99629.56
2023-04-23T03:24:53.279Z,99631.81
2023-04-23T03:29:54.637Z,99628.50
2023-04-23T03:34:56.004Z,99634.91
2023-04-23T03:39:57.339Z,99630.13
2023-04-23T03:44:59.272Z,99630.13
2023-04-23T03:50:00.593Z,99630.56
2023-04-23T03:55:02.733Z,99632.44
2023-04-23T04:00:08.096Z,99629.72
2023-04-23T04:05:11.349Z,99629.50
2023-04-23T04:10:13.087Z,99626.81
2023-04-23T04:15:16.848Z,99636.59
2023-04-23T04:20:18.295Z,99626.81
2023-04-23T04:25:22.132Z,99632.81
2023-04-23T04:30:24.555Z,99632.22
2023-04-23T04:35:26.256Z,99630.13
2023-04-23T04:40:28.556Z,99632.38
2023-04-23T04:45:29.887Z,99628.56
2023-04-23T04:50:31.358Z,99640.22
2023-04-23T04:55:32.687Z,99636.06
2023-04-23T05:00:34.356Z,99652.72
2023-04-23T05:05:35.754Z,99643.63
2023-04-23T05:10:37.552Z,99641.47
2023-04-23T05:15:39.074Z,99640.44
2023-04-23T05:20:41.068Z,99645.59
2023-04-23T05:25:42.446Z,99645.13
2023-04-23T05:30:43.867Z,99651.59
2023-04-23T05:35:45.240Z,99649.31
2023-04-23T05:40:46.806Z,99660.13
2023-04-23T05:45:48.172Z,99658.03
2023-04-23T05:50:49.532Z,99665.94
2023-04-23T05:55:50.903Z,99658.44
2023-04-23T06:00:53.248Z,99658.78
2023-04-23T06:05:54.692Z,99668.78
2023-04-23T06:10:56.228Z,99671.66
2023-04-23T06:15:58.443Z,99670.97
2023-04-23T06:21:04.157Z,99673.00
2023-04-23T06:26:05.680Z,99670.00
2023-04-23T06:31:07.917Z,99672.09
2023-04-23T06:36:12.045Z,99665.69
2023-04-23T06:41:13.672Z,99657.75
2023-04-23T06:46:15.537Z,99658.16
2023-04-23T06:51:17.224Z,99655.66
2023-04-23T06:56:18.617Z,99671.00
2023-04-23T07:01:20.220Z,99668.59
2023-04-23T07:06:21.774Z,99647.25
2023-04-23T07:11:23.823Z,99642.56
2023-04-23T07:16:25.805Z,99633.50
2023-04-23T07:21:28.548Z,99629.13
2023-04-23T07:26:29.940Z,99628.06
2023-04-23T07:31:31.569Z,99628.13
2023-04-23T07:36:33.479Z,99628.56
2023-04-23T07:41:35.637Z,99634.75
2023-04-23T07:46:37.186Z,99632.28
2023-04-23T07:51:38.714Z,99631.38
2023-04-23T07:56:42.047Z,99627.53
2023-04-23T08:01:44.795Z,99625.44
2023-04-23T08:06:46.299Z,99623.84
2023-04-23T08:11:48.233Z,99618.09
2023-04-23T08:16:49.720Z,99624.22
2023-04-23T08:21:52.388Z,99616.91
2023-04-23T08:26:53.751Z,99615.97
2023-04-23T08:31:55.185Z,99613.69
2023-04-23T08:36:56.613Z,99602.00
2023-04-23T08:42:04.750Z,99599.97
2023-04-23T08:47:08.135Z,99598.91
2023-04-23T08:52:19.725Z,99599.97
2023-04-23T08:57:22.074Z,99602.97
2023-04-23T09:02:24.284Z,99605.00
2023-04-23T09:07:25.864Z,99592.00
2023-04-23T09:12:27.897Z,99588.94
2023-04-23T09:17:30.644Z,99587.53
2023-04-23T09:22:47.377Z,99579.88
2023-04-23T09:27:51.892Z,99567.66
2023-04-23T09:32:53.851Z,99564.69
2023-04-23T09:37:55.409Z,99555.94
2023-04-23T09:42:56.776Z,99552.75
2023-04-23T09:47:58.853Z,99548.44
2023-04-23T09:53:00.742Z,99550.19
2023-04-23T09:58:04.459Z,99549.09
2023-04-23T10:03:08.688Z,99536.53
2023-04-23T10:08:12.123Z,99539.38
2023-04-23T10:13:14.473Z,99531.66
2023-04-23T10:18:16.326Z,99524.69
2023-04-23T10:23:20.997Z,99525.41
2023-04-23T10:28:28.979Z,99523.56
2023-04-23T10:33:37.665Z,99520.81
2023-04-23T10:38:56.863Z,99523.31
2023-04-23T10:43:59.506Z,99526.13
2023-04-23T10:49:08.639Z,99518.19
2023-04-23T10:54:11.163Z,99514.78
2023-04-23T10:59:21.958Z,99507.44
2023-04-23T11:04:29.183Z,99505.09
2023-04-23T11:09:39.489Z,99502.25
2023-04-23T11:14:48.430Z,99502.81
2023-04-23T11:20:23.686Z,99481.94
2023-04-23T11:25:30.381Z,99475.66
2023-04-23T11:30:32.075Z,99475.16
2023-04-23T11:35:40.440Z,99479.00
2023-04-23T11:40:42.783Z,99463.88
2023-04-23T11:45:44.464Z,99449.16
2023-04-23T11:50:46.584Z,99454.81
2023-04-23T11:55:49.230Z,99440.31
2023-04-23T12:00:58.129Z,99448.41
2023-04-23T12:05:59.778Z,99466.78
2023-04-23T12:11:02.580Z,99452.59
2023-04-23T12:16:05.182Z,99438.16
2023-04-23T12:21:08.260Z,99430.66
2023-04-23T12:26:15.104Z,99414.34
2023-04-23T12:31:24.492Z,99423.34
2023-04-23T12:36:29.471Z,99406.81
2023-04-23T12:41:32.318Z,99420.91
2023-04-23T12:46:34.916Z,99405.59
2023-04-23T12:51:36.361Z,99388.06
2023-04-23T12:56:37.730Z,99362.78
2023-04-23T13:01:39.284Z,99353.41
2023-04-23T13:06:41.527Z,99344.25
2023-04-23T13:11:42.901Z,99327.03
2023-04-23T13:16:44.543Z,99312.50
2023-04-23T13:21:46.020Z,99302.88
2023-04-23T13:26:47.388Z,99306.84
2023-04-23T13:31:48.768Z,99298.31
2023-04-23T13:36:50.183Z,99290.44
2023-04-23T13:42:06.219Z,99270.97
2023-04-23T13:47:10.777Z,99269.03
2023-04-23T13:52:12.134Z,99259.25
2023-04-23T13:57:13.573Z,99248.31
2023-04-23T14:02:14.983Z,99239.47
2023-04-23T14:07:16.377Z,99236.97
2023-04-23T14:12:18.599Z,99221.25
2023-04-23T14:17:19.946Z,99228.13
2023-04-23T14:22:21.328Z,99215.91
2023-04-23T14:27:22.792Z,99202.38
2023-04-23T14:32:24.150Z,99184.84
2023-04-23T14:37:25.543Z,99169.50
2023-04-23T14:42:27.350Z,99163.59
2023-04-23T14:47:28.752Z,99162.00
2023-04-23T14:52:31.462Z,99151.13
2023-04-23T14:57:32.763Z,99146.09
2023-04-23T15:02:34.932Z,99138.88
2023-04-23T15:07:37.344Z,99131.22
2023-04-23T15:12:47.979Z,99123.63
2023-04-23T15:17:49.657Z,99129.56
2023-04-23T15:22:52.103Z,99117.22
2023-04-23T15:27:57.721Z,99111.72
2023-04-23T15:32:59.199Z,99107.91
2023-04-23T15:38:01.009Z,99098.72
2023-04-23T15:43:03.390Z,99098.13
2023-04-23T15:48:05.153Z,99095.13
2023-04-23T15:53:06.781Z,99087.00
2023-04-23T15:58:08.307Z,99070.75
2023-04-23T16:03:09.798Z,99077.59
2023-04-23T16:08:11.828Z,99075.44
2023-04-23T16:13:13.284Z,99071.13
2023-04-23T16:18:14.715Z,99065.53
2023-04-23T16:23:16.266Z,99072.06
2023-04-23T16:28:17.704Z,99075.38
2023-04-23T16:33:19.026Z,99065.63
2023-04-23T16:38:20.353Z,99068.94
2023-04-23T16:43:21.749Z,99110.81
2023-04-23T16:48:23.101Z,99161.19
2023-04-23T16:53:24.540Z,99169.94
2023-04-23T16:58:25.983Z,99177.97
2023-04-23T17:03:27.515Z,99179.00
2023-04-23T17:08:29.036Z,99176.56
2023-04-23T17:13:30.501Z,99155.88
2023-04-23T17:18:31.852Z,99145.38
2023-04-23T17:23:33.433Z,99143.38
2023-04-23T17:28:34.816Z,99123.63
2023-04-23T17:33:36.281Z,99107.84
2023-04-23T17:38:38.159Z,99097.22
2023-04-23T17:43:39.533Z,99119.38
2023-04-23T17:48:41.109Z,99117.72
2023-04-23T17:53:42.608Z,99115.97
2023-04-23T17:58:44.223Z,99112.19
2023-04-23T18:03:45.700Z,99110.91
2023-04-23T18:08:47.165Z,99111.13
2023-04-23T18:13:53.401Z,99113.81
2023-04-23T18:18:54.732Z,99104.16
2023-04-23T18:23:56.167Z,99109.47
2023-04-23T18:28:57.508Z,99110.75
2023-04-23T18:34:02.150Z,99117.22
2023-04-23T18:39:04.019Z,99109.47
2023-04-23T18:44:05.552Z,99113.16
2023-04-23T18:49:29.834Z,99114.91
2023-04-23T18:54:31.406Z,99115.50
2023-04-23T18:59:35.756Z,99110.31
2023-04-23T19:04:37.837Z,99119.84
2023-04-23T19:09:39.695Z,99126.41
2023-04-23T19:14:41.300Z,99133.00
2023-04-23T19:19:42.893Z,99122.06
2023-04-23T19:24:44.362Z,99117.09
2023-04-23T19:29:46.412Z,99138.44
2023-04-23T19:34:48.062Z,99124.75
2023-04-23T19:39:50.047Z,99138.88
2023-04-23T19:44:51.362Z,99126.66
2023-04-23T19:49:52.814Z,99119.06
2023-04-23T19:54:54.191Z,99125.16
2023-04-23T19:59:55.626Z,99126.22
2023-04-23T20:04:56.948Z,99139.06
2023-04-23T20:09:58.252Z,99131.34
2023-04-23T20:14:59.579Z,99137.16
2023-04-23T20:20:02.668Z,99130.50
2023-04-23T20:25:05.211Z,99135.44
2023-04-23T20:30:10.390Z,99135.00
2023-04-23T20:35:11.729Z,99131.34
2023-04-23T20:40:14.584Z,99135.25
2023-04-23T20:45:16.391Z,99131.47
2023-04-23T20:50:17.738Z,99125.22
2023-04-23T20:55:19.246Z,99126.53
2023-04-23T21:00:22.262Z,99126.66
2023-04-23T21:05:23.635Z,99137.50
2023-04-23T21:10:25.011Z,99133.00
2023-04-23T21:15:27.087Z,99142.19
2023-04-23T21:20:28.686Z,99138.41
2023-04-23T21:25:33.448Z,99148.69
2023-04-23T21:30:55.128Z,99142.91
2023-04-23T21:35:56.559Z,99136.22
2023-04-23T21:40:57.911Z,99149.97
2023-04-23T21:45:59.537Z,99138.44
2023-04-23T21:51:00.852Z,99153.47
2023-04-23T21:56:02.221Z,99151.94
2023-04-23T22:01:03.950Z,99151.28
2023-04-23T22:06:06.486Z,99159.03
2023-04-23T22:11:08.286Z,99153.97
2023-04-23T22:16:24.586Z,99154.22
2023-04-23T22:21:29.326Z,99155.28
2023-04-23T22:26:30.745Z,99140.03
2023-04-23T22:31:32.097Z,99145.09
2023-04-23T22:36:34.461Z,99144.75
2023-04-23T22:41:38.652Z,99139.81
2023-04-23T22:46:40.402Z,99135.69
2023-04-23T22:51:41.862Z,99125.81
2023-04-23T22:56:43.535Z,99132.00
2023-04-23T23:01:44.962Z,99146.16
2023-04-23T23:06:46.441Z,99142.28
2023-04-23T23:11:47.789Z,99132.31
2023-04-23T23:16:49.138Z,99117.34
2023-04-23T23:21:50.580Z,99109.75
2023-04-23T23:26:51.894Z,99114.81
2023-04-23T23:31:53.256Z,99113.25
2023-04-23T23:36:54.694Z,99106.50
2023-04-23T23:41:57.738Z,99116.13
2023-04-23T23:47:01.370Z,99112.72
2023-04-23T23:52:03.755Z,99115.88
2023-04-23T23:57:05.151Z,99116.56
